Time;durP1;ratioP1;P1;durP2;ratioP2;P2;SDS_P1;SDS_P2;PMS_P1;PMS_P2;Temp;Humidity;BMP_temperature;BMP_pressure;BME280_temperature;BME280_humidity;BME280_pressure;Samples;Min_cycle;Max_cycle;Signal;HPM_P1;HPM_P2
2022/11/08 00:02:03;;;;;;;2.77;2.13;;;;;;;10.82;100.00;100856.97;4980116;28;20291;-52
2022/11/08 00:04:29;;;;;;;11.50;3.00;;;;;;;10.78;100.00;100866.59;4977499;28;20226;-54
2022/11/08 00:15:10;;;;;;;4.60;2.90;;;;;;;10.82;100.00;100865.72;4978854;28;20874;-53
2022/11/08 00:17:36;;;;;;;5.90;2.33;;;;;;;10.77;100.00;100864.81;4979319;28;20238;-53
2022/11/08 00:20:04;;;;;;;5.63;2.90;;;;;;;10.79;100.00;100865.72;4977959;28;20257;-52
2022/11/08 00:22:31;;;;;;;8.20;2.23;;;;;;;10.71;100.00;100870.09;4985164;28;20258;-52
2022/11/08 00:24:57;;;;;;;6.40;2.30;;;;;;;10.75;100.00;100871.84;4983219;28;20234;-56
2022/11/08 00:27:25;;;;;;;2.37;2.17;;;;;;;10.68;100.00;100873.59;4970379;28;20231;-53
2022/11/08 00:29:51;;;;;;;3.37;2.53;;;;;;;10.69;100.00;100875.34;4977891;28;20227;-53
2022/11/08 00:32:20;;;;;;;3.50;2.47;;;;;;;10.68;100.00;100875.34;4981308;28;20234;-52
2022/11/08 00:34:47;;;;;;;3.47;3.03;;;;;;;10.59;100.00;100875.31;4985497;28;20590;-53
2022/11/08 00:37:14;;;;;;;4.53;2.27;;;;;;;10.52;100.00;100872.69;4980627;28;20264;-54
2022/11/08 00:39:40;;;;;;;5.00;2.83;;;;;;;10.59;100.00;100883.19;4985682;28;20225;-53
2022/11/08 00:42:07;;;;;;;4.50;2.13;;;;;;;10.65;100.00;100880.59;4973277;28;20368;-52
2022/11/08 00:44:34;;;;;;;2.70;2.10;;;;;;;10.61;100.00;100876.22;4977903;28;20255;-53
2022/11/08 00:47:01;;;;;;;4.00;2.20;;;;;;;10.59;100.00;100873.56;4982171;28;20964;-54
2022/11/08 00:49:29;;;;;;;5.90;2.33;;;;;;;10.58;100.00;100886.72;4980499;28;20244;-52
2022/11/08 00:51:55;;;;;;;3.83;2.30;;;;;;;10.51;100.00;100884.06;4979302;28;20793;-54
2022/11/08 00:54:22;;;;;;;4.90;2.60;;;;;;;10.55;100.00;100882.31;4982128;28;20238;-53
2022/11/08 00:56:49;;;;;;;5.97;2.07;;;;;;;10.55;100.00;100876.19;4978966;28;20230;-54
2022/11/08 00:59:18;;;;;;;4.57;1.80;;;;;;;10.57;100.00;100884.97;4976409;28;20237;-53
2022/11/08 01:01:44;;;;;;;5.63;2.30;;;;;;;10.53;100.00;100884.09;4983295;28;20240;-52
2022/11/08 01:04:12;;;;;;;5.17;2.23;;;;;;;10.48;100.00;100873.56;4982586;28;20322;-53
2022/11/08 01:06:41;;;;;;;4.33;2.20;;;;;;;10.41;100.00;100879.66;4986932;28;20234;-53
2022/11/08 01:09:08;;;;;;;4.23;2.17;;;;;;;10.45;100.00;100881.44;4973334;28;20229;-52
2022/11/08 01:11:34;;;;;;;3.33;2.47;;;;;;;10.42;100.00;100878.78;4983174;28;20230;-52
2022/11/08 01:14:01;;;;;;;10.10;2.93;;;;;;;10.51;100.00;100881.44;4974677;28;20238;-54
2022/11/08 01:16:29;;;;;;;2.40;2.03;;;;;;;10.46;100.00;100875.31;4974563;28;20230;-52
2022/11/08 01:18:57;;;;;;;5.60;2.80;;;;;;;10.47;100.00;100877.06;4979855;28;20307;-53
2022/11/08 01:21:24;;;;;;;3.50;2.00;;;;;;;10.43;100.00;100871.81;4973053;28;20272;-52
2022/11/08 01:23:53;;;;;;;3.93;2.33;;;;;;;10.38;100.00;100873.53;4979816;28;20256;-54
2022/11/08 01:26:21;;;;;;;8.50;2.20;;;;;;;10.38;100.00;100863.91;4979755;28;20672;-53
2022/11/08 01:28:47;;;;;;;2.40;2.17;;;;;;;10.42;100.00;100865.66;4969926;28;20264;-53
2022/11/08 01:31:16;;;;;;;4.63;2.40;;;;;;;10.33;100.00;100863.03;4986688;28;20240;-52
2022/11/08 01:33:43;;;;;;;2.73;2.20;;;;;;;10.30;100.00;100870.91;4983661;28;20617;-53
2022/11/08 01:36:11;;;;;;;2.90;2.17;;;;;;;10.34;100.00;100859.53;4981537;28;20233;-53
2022/11/08 01:38:38;;;;;;;3.43;2.77;;;;;;;10.34;100.00;100856.91;4984086;28;20284;-53
2022/11/08 01:41:06;;;;;;;4.93;2.57;;;;;;;10.37;100.00;100864.81;4967672;28;20230;-53
2022/11/08 01:43:40;;;;;;;3.50;2.17;;;;;;;10.29;100.00;100861.28;4977942;28;20232;-53
2022/11/08 01:46:38;;;;;;;4.10;2.50;;;;;;;10.25;100.00;100862.13;4974541;28;20261;-53
2022/11/08 01:49:31;;;;;;;4.17;2.60;;;;;;;10.24;100.00;100857.72;4978223;28;20218;-54
2022/11/08 01:52:08;;;;;;;5.80;2.30;;;;;;;10.34;100.00;100862.16;4981407;28;20237;-54
2022/11/08 01:54:39;;;;;;;3.73;2.43;;;;;;;10.32;100.00;100858.69;4973839;28;20238;-53
2022/11/08 01:57:11;;;;;;;9.63;2.53;;;;;;;10.32;100.00;100856.06;4977868;28;20860;-54
2022/11/08 01:59:40;;;;;;;5.93;2.33;;;;;;;10.42;100.00;100865.66;4980000;28;20222;-52
2022/11/08 02:02:07;;;;;;;6.90;2.63;;;;;;;10.37;100.00;100870.06;4981564;28;20237;-55
2022/11/08 02:04:34;;;;;;;2.77;2.10;;;;;;;10.37;100.00;100867.44;4968693;28;20229;-54
2022/11/08 02:07:01;;;;;;;4.23;2.50;;;;;;;10.33;100.00;100868.28;4972171;28;20871;-55
2022/11/08 02:09:28;;;;;;;7.00;2.63;;;;;;;10.36;100.00;100865.69;4971879;28;20234;-54
2022/11/08 02:11:55;;;;;;;5.10;2.20;;;;;;;10.30;100.00;100860.41;4979362;28;20237;-53
2022/11/08 02:14:23;;;;;;;2.97;2.20;;;;;;;10.30;100.00;100860.41;4978711;28;20732;-53
2022/11/08 02:16:49;;;;;;;3.53;2.57;;;;;;;10.35;100.00;100849.91;4978643;28;20234;-53
2022/11/08 02:19:20;;;;;;;2.73;2.40;;;;;;;10.36;100.00;100846.44;4977632;28;20233;-53
2022/11/08 02:21:49;;;;;;;4.50;2.60;;;;;;;10.35;100.00;100848.16;4983406;28;20238;-52
2022/11/08 02:24:18;;;;;;;6.97;3.07;;;;;;;10.34;100.00;100843.78;4981454;28;20238;-54
2022/11/08 02:26:45;;;;;;;4.23;2.03;;;;;;;10.22;100.00;100852.50;4979034;28;20234;-52
2022/11/08 02:29:27;;;;;;;4.83;2.60;;;;;;;10.34;100.00;100849.03;4981841;28;20756;-52
2022/11/08 02:31:53;;;;;;;4.83;2.03;;;;;;;10.30;100.00;100855.16;4987241;28;20730;-53
2022/11/08 02:34:22;;;;;;;4.33;2.37;;;;;;;10.26;100.00;100850.78;4984627;28;20227;-53
2022/11/08 02:36:49;;;;;;;3.90;2.50;;;;;;;10.33;100.00;100857.78;4982141;28;20242;-54
2022/11/08 02:39:17;;;;;;;10.10;3.40;;;;;;;10.30;100.00;100860.41;4980436;28;20247;-53
2022/11/08 02:41:44;;;;;;;5.03;2.50;;;;;;;10.22;100.00;100851.63;4982597;28;20238;-53
2022/11/08 02:44:10;;;;;;;3.70;2.30;;;;;;;10.25;100.00;100851.63;4980426;28;20230;-53
2022/11/08 02:46:37;;;;;;;4.83;2.90;;;;;;;10.25;100.00;100856.88;4985976;28;20230;-53
2022/11/08 02:49:03;;;;;;;8.20;2.60;;;;;;;10.17;100.00;100850.72;4977983;28;20712;-52
2022/11/08 02:51:30;;;;;;;3.33;2.60;;;;;;;10.13;100.00;100848.97;4978253;28;20234;-52
2022/11/08 02:53:56;;;;;;;3.70;1.73;;;;;;;10.26;100.00;100853.41;4984086;28;20226;-55
2022/11/08 02:56:24;;;;;;;7.00;2.53;;;;;;;10.13;100.00;100846.34;4987631;28;20242;-52
2022/11/08 02:58:50;;;;;;;6.53;2.40;;;;;;;10.14;100.00;100848.09;4979984;28;20230;-55
2022/11/08 03:01:17;;;;;;;5.13;2.30;;;;;;;10.08;100.00;100843.72;4974416;28;20234;-53
2022/11/08 03:03:43;;;;;;;5.80;2.73;;;;;;;10.06;100.00;100849.81;4975847;28;20332;-53
2022/11/08 03:06:10;;;;;;;3.27;2.50;;;;;;;10.20;100.00;100853.34;4980151;28;20231;-52
2022/11/08 03:08:36;;;;;;;5.87;2.67;;;;;;;10.20;100.00;100855.97;4985947;28;20775;-52
2022/11/08 03:11:03;;;;;;;7.67;3.33;;;;;;;10.20;100.00;100853.34;4979525;28;20239;-53
2022/11/08 03:13:30;;;;;;;8.70;2.63;;;;;;;10.15;100.00;100855.09;4978676;28;20720;-53
2022/11/08 03:15:57;;;;;;;4.67;2.50;;;;;;;10.17;100.00;100850.72;4985404;28;20234;-53
2022/11/08 03:18:23;;;;;;;3.33;2.23;;;;;;;10.18;100.00;100852.47;4982720;28;20244;-56
2022/11/08 03:20:50;;;;;;;4.27;2.80;;;;;;;10.23;100.00;100848.13;4985724;28;20237;-53
2022/11/08 03:23:16;;;;;;;6.47;2.73;;;;;;;10.18;100.00;100839.34;4986660;28;20245;-53
2022/11/08 03:25:43;;;;;;;6.33;3.67;;;;;;;10.19;100.00;100851.63;4977135;28;20245;-54
2022/11/08 03:28:09;;;;;;;5.13;2.40;;;;;;;10.08;100.00;100853.34;4983393;28;20234;-53
2022/11/08 03:30:37;;;;;;;5.50;2.43;;;;;;;10.12;100.00;100853.34;4986056;28;20226;-53
2022/11/08 03:33:04;;;;;;;5.23;2.27;;;;;;;10.10;100.00;100856.81;4980479;28;20241;-53
2022/11/08 03:35:31;;;;;;;4.40;2.47;;;;;;;10.06;100.00;100849.81;4985250;28;20288;-53
2022/11/08 03:37:58;;;;;;;3.27;2.87;;;;;;;10.09;100.00;100848.09;4979025;28;20746;-53
2022/11/08 03:40:25;;;;;;;7.23;2.67;;;;;;;10.11;100.00;100843.72;4983926;28;20238;-53
2022/11/08 03:42:52;;;;;;;3.10;2.47;;;;;;;10.10;100.00;100852.44;4979759;28;20226;-53
2022/11/08 03:45:18;;;;;;;4.97;2.47;;;;;;;10.11;100.00;100843.72;4976569;28;20238;-53
2022/11/08 03:47:47;;;;;;;5.87;2.30;;;;;;;10.03;100.00;100841.06;4983973;28;20412;-53
2022/11/08 03:50:15;;;;;;;4.53;2.50;;;;;;;10.04;100.00;100841.97;4978072;28;20241;-53
2022/11/08 03:52:42;;;;;;;5.57;2.63;;;;;;;10.00;100.00;100850.66;4981780;28;20238;-53
2022/11/08 03:55:10;;;;;;;3.33;2.30;;;;;;;9.92;100.00;100840.16;4980650;28;20226;-53
2022/11/08 03:57:36;;;;;;;4.27;2.23;;;;;;;9.86;100.00;100837.50;4978366;28;20234;-53
2022/11/08 04:00:04;;;;;;;4.33;2.83;;;;;;;9.81;100.00;100839.25;4974024;28;20260;-58
2022/11/08 04:02:30;;;;;;;2.73;2.27;;;;;;;9.78;100.00;100836.59;4978632;28;20233;-55
2022/11/08 04:04:58;;;;;;;3.13;2.07;;;;;;;9.78;100.00;100828.75;4982728;28;20230;-53
2022/11/08 04:07:25;;;;;;;5.00;2.47;;;;;;;9.75;100.00;100839.22;4986415;28;20230;-53
2022/11/08 04:09:51;;;;;;;6.00;2.57;;;;;;;9.77;100.00;100837.50;4985783;28;20248;-53
2022/11/08 04:15:17;;;;;;;6.67;3.10;;;;;;;9.71;100.00;100840.06;4986831;28;20249;-57
2022/11/08 04:23:17;;;;;;;5.97;2.77;;;;;;;9.72;100.00;100845.34;4970267;28;20235;-54
2022/11/08 04:25:44;;;;;;;5.57;2.50;;;;;;;9.68;100.00;100846.19;4982920;28;20253;-54
2022/11/08 04:28:11;;;;;;;4.63;2.40;;;;;;;9.65;100.00;100848.81;4977431;28;20234;-54
2022/11/08 04:30:38;;;;;;;4.10;2.20;;;;;;;9.63;100.00;100845.28;4979474;28;20226;-53
2022/11/08 04:33:05;;;;;;;5.13;2.67;;;;;;;9.65;100.00;100843.56;4979712;28;20234;-54
2022/11/08 04:35:33;;;;;;;2.27;2.03;;;;;;;9.63;100.00;100841.81;4978585;28;20230;-53
2022/11/08 04:38:01;;;;;;;2.50;2.30;;;;;;;9.69;100.00;100839.22;4981433;28;20234;-53
2022/11/08 04:40:28;;;;;;;6.23;2.80;;;;;;;9.57;100.00;100834.78;4982428;28;20230;-53
2022/11/08 04:42:54;;;;;;;8.57;3.27;;;;;;;9.60;100.00;100841.78;4982752;28;20230;-53
2022/11/08 04:45:21;;;;;;;5.70;3.10;;;;;;;9.52;100.00;100837.38;4976847;28;20608;-52
2022/11/08 04:47:48;;;;;;;6.97;2.57;;;;;;;9.56;100.00;100828.66;4982532;28;20233;-54
2022/11/08 04:50:16;;;;;;;6.43;2.50;;;;;;;9.52;100.00;100834.75;4978255;28;20770;-53
2022/11/08 04:52:43;;;;;;;4.90;2.20;;;;;;;9.50;100.00;100844.34;4979705;28;20681;-53
2022/11/08 04:55:10;;;;;;;2.77;2.57;;;;;;;9.52;100.00;100845.25;4973617;28;20633;-53
2022/11/08 04:57:36;;;;;;;3.47;2.63;;;;;;;9.47;100.00;100839.09;4968749;28;20242;-53
2022/11/08 05:00:03;;;;;;;3.37;2.33;;;;;;;9.47;100.00;100843.44;4976880;28;20596;-53
2022/11/08 05:02:30;;;;;;;4.43;2.90;;;;;;;9.44;100.00;100849.56;4979612;28;20229;-54
2022/11/08 05:04:56;;;;;;;3.10;2.53;;;;;;;9.43;100.00;100847.81;4980064;28;20234;-53
2022/11/08 05:07:23;;;;;;;5.13;3.30;;;;;;;9.44;100.00;100843.44;4980490;28;20234;-53
2022/11/08 05:09:50;;;;;;;5.30;2.97;;;;;;;9.40;100.00;100845.16;4980546;28;20683;-53
2022/11/08 05:12:17;;;;;;;9.10;3.20;;;;;;;9.50;100.00;100846.97;4977199;28;20322;-54
2022/11/08 05:14:43;;;;;;;5.67;2.87;;;;;;;9.38;100.00;100848.66;4981060;28;20242;-54
2022/11/08 05:17:10;;;;;;;5.23;2.73;;;;;;;9.42;100.00;100845.19;4978444;28;20230;-54
2022/11/08 05:25:09;;;;;;;6.13;2.77;;;;;;;9.31;100.00;100842.50;4980603;28;20281;-53
2022/11/08 05:27:35;;;;;;;4.90;3.30;;;;;;;9.31;100.00;100842.50;4979500;28;20233;-54
2022/11/08 05:30:02;;;;;;;4.37;2.87;;;;;;;9.32;100.00;100833.78;4977371;28;20234;-56
2022/11/08 05:32:28;;;;;;;3.90;2.73;;;;;;;9.29;100.00;100845.09;4976385;28;20235;-53
2022/11/08 05:34:55;;;;;;;7.33;3.47;;;;;;;9.25;100.00;100842.47;4979032;28;20249;-54
2022/11/08 05:37:21;;;;;;;16.13;3.70;;;;;;;9.31;100.00;100832.03;4979370;28;20249;-54
2022/11/08 05:39:47;;;;;;;4.70;3.10;;;;;;;9.35;100.00;100833.78;4981311;28;20234;-53
2022/11/08 05:42:15;;;;;;;4.20;2.93;;;;;;;9.29;100.00;100833.75;4982619;28;20246;-52
2022/11/08 05:44:42;;;;;;;3.33;2.83;;;;;;;9.22;100.00;100824.97;4983285;28;20230;-53
2022/11/08 05:47:08;;;;;;;8.93;3.37;;;;;;;9.19;100.00;100832.81;4980306;28;20244;-53
2022/11/08 05:49:35;;;;;;;6.30;2.80;;;;;;;9.22;100.00;100835.44;4978992;28;20233;-52
2022/11/08 05:52:01;;;;;;;6.07;3.57;;;;;;;9.16;100.00;100829.28;4976043;28;20242;-53
2022/11/08 05:54:27;;;;;;;3.87;3.47;;;;;;;9.11;100.00;100841.50;4977892;28;20241;-53
2022/11/08 05:56:54;;;;;;;6.10;3.10;;;;;;;9.10;100.00;100843.25;4978759;28;20233;-61
2022/11/08 05:59:22;;;;;;;3.13;2.83;;;;;;;9.06;100.00;100839.72;4982546;28;20260;-53
2022/11/08 06:01:48;;;;;;;5.90;3.50;;;;;;;9.19;100.00;100838.06;4980471;28;20241;-54
2022/11/08 06:04:15;;;;;;;3.97;3.57;;;;;;;9.12;100.00;100841.50;4977663;28;20234;-52
2022/11/08 06:06:41;;;;;;;9.73;3.93;;;;;;;9.14;100.00;100846.75;4972535;28;20237;-53
2022/11/08 06:09:08;;;;;;;8.30;4.37;;;;;;;9.21;100.00;100851.19;4977470;28;20235;-53
2022/11/08 06:11:34;;;;;;;7.80;3.37;;;;;;;9.18;100.00;100845.91;4982811;28;20230;-53
2022/11/08 06:14:00;;;;;;;5.40;3.10;;;;;;;9.09;100.00;100846.75;4976590;28;20245;-55
2022/11/08 06:16:28;;;;;;;6.63;3.33;;;;;;;9.11;100.00;100855.47;4981362;28;20730;-53
2022/11/08 06:18:55;;;;;;;8.17;3.63;;;;;;;9.03;100.00;100852.81;4974540;28;20230;-54
2022/11/08 06:21:22;;;;;;;4.30;3.90;;;;;;;9.05;100.00;100847.56;4978769;28;20238;-53
2022/11/08 06:23:51;;;;;;;4.23;3.20;;;;;;;9.02;100.00;100860.63;4978567;28;20237;-53
2022/11/08 06:26:18;;;;;;;3.83;3.30;;;;;;;9.00;100.00;100863.25;4978210;28;20245;-53
2022/11/08 06:28:44;;;;;;;4.03;3.40;;;;;;;9.12;100.00;100862.44;4972312;28;20238;-54
2022/11/08 06:31:11;;;;;;;6.23;3.13;;;;;;;9.11;100.00;100862.44;4979427;28;20233;-53
2022/11/08 06:33:39;;;;;;;8.20;3.90;;;;;;;9.09;100.00;100865.06;4982562;28;20238;-54
2022/11/08 06:36:06;;;;;;;9.40;4.50;;;;;;;9.13;100.00;100858.13;4981557;28;20242;-53
2022/11/08 06:38:33;;;;;;;7.20;3.60;;;;;;;9.08;100.00;100863.31;4979753;28;20230;-54
2022/11/08 06:40:59;;;;;;;7.23;4.00;;;;;;;9.09;100.00;100867.69;4978431;28;20234;-53
2022/11/08 06:43:26;;;;;;;10.30;3.67;;;;;;;9.07;100.00;100866.78;4975721;28;20645;-54
2022/11/08 06:45:52;;;;;;;4.93;3.70;;;;;;;9.10;100.00;100865.94;4981281;28;20280;-53
2022/11/08 06:48:19;;;;;;;4.67;3.87;;;;;;;9.05;100.00;100866.75;4979612;28;20772;-53
2022/11/08 06:50:47;;;;;;;5.93;3.80;;;;;;;8.99;100.00;100869.38;4981949;28;20552;-53
2022/11/08 06:53:14;;;;;;;9.20;4.57;;;;;;;8.93;100.00;100876.28;4984086;28;20230;-53
2022/11/08 06:55:40;;;;;;;7.43;3.50;;;;;;;9.03;100.00;100867.66;4987589;28;20873;-53
2022/11/08 06:58:07;;;;;;;6.60;4.60;;;;;;;8.96;100.00;100874.56;4976728;28;20230;-54
2022/11/08 07:00:34;;;;;;;4.33;3.20;;;;;;;9.03;100.00;100878.13;4980836;28;20606;-54
2022/11/08 07:03:02;;;;;;;10.57;4.20;;;;;;;9.10;100.00;100873.81;4980324;28;20257;-52
2022/11/08 07:05:29;;;;;;;5.60;3.90;;;;;;;9.04;100.00;100870.25;4977622;28;20230;-53
2022/11/08 07:07:59;;;;;;;5.80;4.30;;;;;;;9.15;100.00;100864.22;4978183;28;20723;-54
2022/11/08 07:10:27;;;;;;;7.37;4.33;;;;;;;9.09;100.00;100872.94;4979707;28;20230;-54
2022/11/08 07:12:58;;;;;;;9.17;3.87;;;;;;;9.07;100.00;100865.06;4981047;28;20234;-55
2022/11/08 07:15:24;;;;;;;10.57;4.30;;;;;;;9.06;100.00;100872.91;4982903;28;20241;-59
2022/11/08 07:17:51;;;;;;;5.70;4.13;;;;;;;9.16;100.00;100865.97;4973680;28;20239;-52
2022/11/08 07:20:17;;;;;;;8.60;4.17;;;;;;;9.07;100.00;100865.06;4973132;28;20242;-54
2022/11/08 07:22:44;;;;;;;5.13;3.70;;;;;;;9.19;100.00;100859.00;4970054;28;20250;-54
2022/11/08 07:25:11;;;;;;;4.90;3.87;;;;;;;9.15;100.00;100845.88;4978790;28;20229;-54
2022/11/08 07:27:38;;;;;;;5.77;4.27;;;;;;;9.23;100.00;100854.66;4979743;28;20230;-54
2022/11/08 07:30:05;;;;;;;7.70;3.43;;;;;;;9.22;100.00;100858.16;4980033;28;20233;-53
2022/11/08 07:32:32;;;;;;;7.97;4.90;;;;;;;9.29;100.00;100859.94;4980270;28;20712;-54
2022/11/08 07:34:58;;;;;;;7.47;3.90;;;;;;;9.33;100.00;100859.97;4978732;28;20234;-58
2022/11/08 07:37:25;;;;;;;6.13;3.70;;;;;;;9.38;100.00;100862.63;4978285;28;20237;-57
2022/11/08 07:39:51;;;;;;;4.87;2.70;;;;;;;9.49;100.00;100858.31;4977999;28;20230;-53
2022/11/08 07:42:19;;;;;;;3.67;3.03;;;;;;;9.57;100.00;100856.63;4978708;28;20238;-52
2022/11/08 07:44:45;;;;;;;7.87;3.87;;;;;;;9.63;100.00;100860.16;4976753;28;20254;-53
2022/11/08 07:47:12;;;;;;;6.23;3.53;;;;;;;9.68;100.00;100858.41;4980770;28;20778;-54
2022/11/08 07:49:38;;;;;;;6.43;4.00;;;;;;;9.78;100.00;100865.44;4978062;28;20655;-54
2022/11/08 07:52:05;;;;;;;6.43;3.20;;;;;;;9.99;100.00;100869.91;4981627;28;20689;-52
2022/11/08 07:54:31;;;;;;;5.83;4.77;;;;;;;9.92;100.00;100862.88;4980751;28;20239;-53
2022/11/08 07:56:58;;;;;;;7.80;3.47;;;;;;;9.92;100.00;100866.38;4983152;28;20254;-53
2022/11/08 07:59:25;;;;;;;4.97;4.13;;;;;;;9.94;100.00;100861.16;4985036;28;20234;-53
2022/11/08 08:01:52;;;;;;;10.07;4.87;;;;;;;9.97;100.00;100856.81;4987287;28;20233;-53
2022/11/08 08:04:18;;;;;;;6.67;4.00;;;;;;;10.06;100.00;100855.94;4984586;28;20238;-53
2022/11/08 08:06:45;;;;;;;7.67;4.27;;;;;;;10.08;100.00;100848.09;4981162;28;20250;-53
2022/11/08 08:09:11;;;;;;;5.60;3.47;;;;;;;10.12;100.00;100844.59;4986358;28;20237;-53
2022/11/08 08:11:37;;;;;;;5.00;3.70;;;;;;;10.20;100.00;100848.97;4982884;28;20737;-53
2022/11/08 08:14:04;;;;;;;5.93;3.23;;;;;;;10.21;100.00;100842.88;4988705;28;22461;-53
2022/11/08 08:16:35;;;;;;;7.17;3.50;;;;;;;10.28;100.00;100843.78;4979090;28;20616;-53
2022/11/08 08:19:02;;;;;;;6.30;3.20;;;;;;;10.40;100.00;100841.19;4980583;28;20316;-56
2022/11/08 08:21:28;;;;;;;4.40;3.13;;;;;;;10.42;100.00;100839.41;4980715;28;20237;-53
2022/11/08 08:23:54;;;;;;;5.43;3.30;;;;;;;10.54;100.00;100835.09;4981979;28;20229;-62
2022/11/08 08:26:21;;;;;;;4.17;3.27;;;;;;;10.66;100.00;100838.56;4972978;28;20262;-54
2022/11/08 08:28:47;;;;;;;6.87;2.70;;;;;;;10.68;100.00;100836.84;4979072;28;20232;-54
2022/11/08 08:31:14;;;;;;;4.60;2.87;;;;;;;10.75;100.00;100835.09;4983075;28;20226;-55
2022/11/08 08:33:42;;;;;;;7.70;3.27;;;;;;;10.83;100.00;100845.59;4980081;28;20628;-53
2022/11/08 08:36:08;;;;;;;4.33;2.70;;;;;;;10.94;100.00;100839.44;4978459;28;20280;-54
2022/11/08 08:38:35;;;;;;;6.73;3.07;;;;;;;10.99;100.00;100836.84;4973351;28;20317;-54
2022/11/08 08:41:02;;;;;;;4.90;2.93;;;;;;;11.14;100.00;100834.16;4980411;28;20237;-53
2022/11/08 08:43:31;;;;;;;4.83;2.57;;;;;;;11.26;100.00;100828.00;4983785;28;20269;-53
2022/11/08 08:45:59;;;;;;;6.10;2.83;;;;;;;11.38;100.00;100829.75;4981108;28;20387;-53
2022/11/08 08:48:25;;;;;;;8.70;2.93;;;;;;;11.49;100.00;100830.59;4982127;28;20495;-53
2022/11/08 08:50:53;;;;;;;4.17;2.90;;;;;;;11.63;100.00;100826.16;4981804;28;20234;-53
2022/11/08 08:53:19;;;;;;;11.13;3.10;;;;;;;11.56;100.00;100832.31;4982336;28;20238;-54
2022/11/08 08:55:47;;;;;;;14.20;3.47;;;;;;;11.57;100.00;100820.03;4982711;28;20245;-53
2022/11/08 08:58:13;;;;;;;6.90;2.80;;;;;;;11.67;100.00;100827.00;4984233;28;20710;-53
2022/11/08 09:00:40;;;;;;;5.40;2.87;;;;;;;11.70;100.00;100829.63;4976309;28;20263;-54
2022/11/08 09:03:09;;;;;;;5.40;2.67;;;;;;;11.74;100.00;100827.84;4982645;28;20728;-57
2022/11/08 09:05:39;;;;;;;8.73;3.10;;;;;;;11.81;100.00;100821.69;4981225;28;20241;-53
2022/11/08 09:08:07;;;;;;;6.03;2.20;;;;;;;11.90;100.00;100829.59;4976920;28;20716;-52
2022/11/08 09:10:34;;;;;;;4.68;2.15;;;;;;;11.88;100.00;100826.94;4980578;28;20264;-59
2022/11/08 09:13:01;;;;;;;6.37;2.57;;;;;;;11.93;100.00;100825.19;4982759;28;20297;-54
2022/11/08 09:15:28;;;;;;;2.97;2.30;;;;;;;11.97;100.00;100830.41;4974654;28;20249;-53
2022/11/08 09:17:55;;;;;;;3.57;2.43;;;;;;;11.99;100.00;100828.66;4982335;28;20312;-53
2022/11/08 09:20:21;;;;;;;10.52;2.70;;;;;;;12.05;100.00;100829.50;4980562;28;20230;-53
2022/11/08 09:22:48;;;;;;;4.73;1.70;;;;;;;12.04;100.00;100821.59;4972383;28;20254;-54
2022/11/08 09:25:16;;;;;;;4.60;2.40;;;;;;;12.17;100.00;100828.53;4985819;28;20234;-62
2022/11/08 09:27:43;;;;;;;5.00;2.57;;;;;;;12.15;100.00;100830.31;4986796;28;20249;-57
2022/11/08 09:30:10;;;;;;;2.90;2.27;;;;;;;12.22;100.00;100825.91;4979711;28;20670;-53
2022/11/08 09:32:37;;;;;;;5.70;2.78;;;;;;;12.32;100.00;100820.56;4986374;28;20238;-55
2022/11/08 09:35:04;;;;;;;7.43;2.10;;;;;;;12.39;100.00;100830.16;4983914;28;20244;-54
2022/11/08 09:37:30;;;;;;;7.57;2.40;;;;;;;12.52;100.00;100827.44;4978528;28;20755;-55
2022/11/08 09:39:57;;;;;;;5.82;2.65;;;;;;;12.51;100.00;100828.31;4982691;28;21386;-53
2022/11/08 09:42:49;;;;;;;7.72;2.15;;;;;;;12.58;100.00;100822.13;4969692;28;20325;-53
2022/11/08 09:45:22;;;;;;;5.45;2.28;;;;;;;12.59;100.00;100818.59;4976713;28;20295;-54
2022/11/08 09:47:50;;;;;;;2.33;1.88;;;;;;;12.65;100.00;100823.81;4979649;28;20234;-52
2022/11/08 09:50:20;;;;;;;5.97;2.30;;;;;;;12.66;100.00;100825.56;4981761;28;20257;-53
2022/11/08 09:52:51;;;;;;;4.60;2.42;;;;;;;12.74;100.00;100809.69;4979760;28;20230;-56
2022/11/08 09:55:23;;;;;;;6.28;2.28;;;;;;;12.83;100.00;100817.50;4981756;28;20254;-54
2022/11/08 09:57:58;;;;;;;3.60;2.50;;;;;;;12.88;100.00;100819.22;4982105;28;20241;-53
2022/11/08 10:00:25;;;;;;;4.57;2.15;;;;;;;12.96;100.00;100820.91;4985171;28;20236;-62
2022/11/08 10:02:51;;;;;;;4.18;1.92;;;;;;;13.07;100.00;100813.78;4985943;28;20234;-53
2022/11/08 10:05:19;;;;;;;2.20;2.00;;;;;;;13.10;100.00;100803.22;4980426;28;20238;-53
2022/11/08 10:07:50;;;;;;;5.32;2.22;;;;;;;13.12;100.00;100801.41;4971749;28;20246;-54
2022/11/08 10:10:38;;;;;;;4.38;2.90;;;;;;;13.29;100.00;100804.78;4982665;28;20253;-54
2022/11/08 10:13:13;;;;;;;4.70;2.17;;;;;;;13.29;100.00;100807.41;4979280;28;20234;-52
2022/11/08 10:15:44;;;;;;;4.65;2.00;;;;;;;13.32;100.00;100804.75;4982791;28;20240;-55
2022/11/08 10:18:41;;;;;;;5.45;2.05;;;;;;;13.28;100.00;100794.25;4968999;28;20719;-53
2022/11/08 10:21:11;;;;;;;5.05;1.67;;;;;;;13.33;100.00;100810.88;4972657;28;20234;-52
2022/11/08 10:23:43;;;;;;;2.28;1.67;;;;;;;13.36;100.00;100790.63;4978137;28;20238;-54
2022/11/08 10:26:14;;;;;;;8.93;2.38;;;;;;;13.46;100.00;100795.81;4981234;28;20289;-53
2022/11/08 10:28:48;;;;;;;3.90;1.55;;;;;;;13.53;99.15;100793.06;4974338;28;20237;-53
2022/11/08 10:31:16;;;;;;;5.25;2.05;;;;;;;13.68;98.38;100797.28;4976575;28;20248;-52
2022/11/08 10:33:45;;;;;;;8.23;2.47;;;;;;;13.72;97.45;100788.41;4980122;28;20289;-52
2022/11/08 10:36:16;;;;;;;7.10;1.92;;;;;;;13.76;97.14;100790.16;4982532;28;20242;-53
2022/11/08 10:38:50;;;;;;;4.25;2.22;;;;;;;13.87;95.95;100787.38;4976726;28;20232;-53
2022/11/08 10:41:21;;;;;;;2.65;1.75;;;;;;;13.94;96.19;100785.53;4979625;28;20233;-53
2022/11/08 10:43:53;;;;;;;5.38;2.05;;;;;;;14.02;96.51;100784.50;4974774;28;20261;-53
2022/11/08 10:46:40;;;;;;;7.57;2.05;;;;;;;14.09;94.98;100788.81;4985875;28;20242;-54
2022/11/08 10:49:16;;;;;;;5.18;1.60;;;;;;;14.09;94.56;100783.53;4985493;28;20226;-52
2022/11/08 10:51:43;;;;;;;5.22;2.25;;;;;;;14.14;95.23;100778.16;4984927;28;20234;-53
2022/11/08 10:54:48;;;;;;;5.00;2.60;;;;;;;14.11;94.29;100786.16;4988101;28;20230;-55
2022/11/08 10:57:17;;;;;;;4.68;1.88;;;;;;;14.16;93.88;100779.03;4985984;28;20248;-53
2022/11/08 10:59:45;;;;;;;3.00;1.45;;;;;;;14.06;94.69;100778.28;4981274;28;20229;-53
2022/11/08 11:02:21;;;;;;;5.70;1.85;;;;;;;14.13;94.69;100770.28;4981984;28;20293;-54
2022/11/08 11:04:48;;;;;;;3.53;1.90;;;;;;;14.07;95.42;100768.59;4979303;28;20234;-57
2022/11/08 11:07:36;;;;;;;1.85;1.60;;;;;;;14.08;96.00;100771.22;4979855;28;20246;-53
2022/11/08 11:10:22;;;;;;;3.25;1.70;;;;;;;14.25;95.09;100763.06;4978144;28;20234;-53
2022/11/08 11:12:50;;;;;;;4.18;1.85;;;;;;;14.32;93.87;100769.13;4981168;28;20240;-54
2022/11/08 11:15:18;;;;;;;4.40;2.50;;;;;;;14.43;93.66;100768.94;4982975;28;20238;-52
2022/11/08 11:17:46;;;;;;;2.90;1.33;;;;;;;14.46;92.98;100766.22;4983165;28;20311;-52
2022/11/08 11:20:21;;;;;;;2.42;1.70;;;;;;;14.43;93.74;100756.59;4981811;28;20253;-53
2022/11/08 11:22:47;;;;;;;4.55;1.55;;;;;;;14.49;93.26;100750.31;4981044;28;20356;-53
2022/11/08 11:25:16;;;;;;;3.53;2.08;;;;;;;14.47;92.88;100757.41;4983046;28;20240;-53
2022/11/08 11:27:43;;;;;;;2.85;1.20;;;;;;;14.58;92.46;100752.00;4979677;28;20229;-53
2022/11/08 11:30:22;;;;;;;3.22;1.40;;;;;;;14.62;92.52;100751.91;4981164;28;20230;-53
2022/11/08 11:32:57;;;;;;;5.18;1.98;;;;;;;14.64;92.47;100751.88;4978889;28;20240;-52
2022/11/08 11:35:25;;;;;;;6.60;2.30;;;;;;;14.71;91.08;100746.47;4979285;28;20234;-53
2022/11/08 11:37:52;;;;;;;5.07;1.58;;;;;;;14.87;89.42;100744.41;4983837;28;20970;-52
2022/11/08 11:40:24;;;;;;;5.05;1.80;;;;;;;14.80;88.31;100735.69;4981082;28;20236;-52
2022/11/08 11:42:58;;;;;;;9.95;2.08;;;;;;;14.85;88.98;100732.09;4985422;28;20303;-53
2022/11/08 11:45:29;;;;;;;4.80;2.05;;;;;;;14.82;89.59;100727.75;4982139;28;20598;-53
2022/11/08 11:47:56;;;;;;;4.80;2.10;;;;;;;14.85;88.82;100727.72;4981893;28;20246;-58
2022/11/08 11:50:28;;;;;;;3.75;1.75;;;;;;;14.84;88.93;100725.06;4979817;28;20230;-53